FAOR/JNB METAR and TAF weather

Enter ICAO airport designator
Station Type Date Time Source
FAOR METAR 2020/07/15 02:00 UTC NOAA

FAOR 150200Z 15008KT 120V180 CAVOK M02/M06 Q1030 NOSIG


Station Type Date Time Source
FAOR Decoded METAR 2020/07/15 02:00 UTC NOAA

Station name not available
Jul 14, 2020 - 10:00 PM EDT / 2020.07.15 0200 UTC
Wind: from the SSE (150 degrees) at 9 MPH (8 KT) (direction variable):0
Visibility: greater than 7 mile(s):0
Temperature: 28 F (-2 C)
Windchill: 19 F (-7 C):1
Dew Point: 21 F (-6 C)
Relative Humidity: 74%
Pressure (altimeter): 30.42 in. Hg (1030 hPa)
ob: FAOR 150200Z 15008KT 120V180 CAVOK M02/M06 Q1030 NOSIG
cycle: 2

Station Type Date Time Source
FAOR TAF 2020/07/14 18:00 UTC NOAA

TAF FAOR 141600Z 1418/1524 18012KT CAVOK TX14/1513Z TN00/1504Z
BECMG 1504/1506 10010KT

Example: see airport list